Time;durP1;ratioP1;P1;durP2;ratioP2;P2;SDS_P1;SDS_P2;PMS_P1;PMS_P2;Temp;Humidity;BMP_temperature;BMP_pressure;BME280_temperature;BME280_humidity;BME280_pressure;Samples;Min_cycle;Max_cycle;Signal;HPM_P1;HPM_P2
2023/08/16 00:00:01;;;;;;;;;;;23.70;60.60;;;;;;5098335;27;19924;-57
2023/08/16 00:02:28;;;;;;;;;;;23.70;60.60;;;;;;5105746;28;19928;-57
2023/08/16 00:04:54;;;;;;;;;;;23.70;60.60;;;;;;5100803;28;19980;-57
2023/08/16 00:07:21;;;;;;;;;;;23.70;60.60;;;;;;5114664;27;20378;-57
2023/08/16 00:09:50;;;;;;;;;;;23.70;60.60;;;;;;5095034;27;19920;-56
2023/08/16 00:12:17;;;;;;;;;;;23.70;60.50;;;;;;5098530;28;19977;-57
2023/08/16 00:14:43;;;;;;;;;;;23.70;61.30;;;;;;5109764;27;20082;-57
2023/08/16 00:17:12;;;;;;;;;;;23.70;60.50;;;;;;5106156;28;19931;-57
2023/08/16 00:19:39;;;;;;;;;;;23.70;60.50;;;;;;5101941;27;19962;-56
2023/08/16 00:22:05;;;;;;;;;;;23.70;60.50;;;;;;5096564;28;19924;-57
2023/08/16 00:24:32;;;;;;;;;;;23.70;60.50;;;;;;5108458;27;19923;-57
2023/08/16 00:26:59;;;;;;;;;;;23.70;60.40;;;;;;5119848;27;20365;-57
2023/08/16 00:29:26;;;;;;;;;;;23.70;60.40;;;;;;5115049;27;19924;-56
2023/08/16 00:31:52;;;;;;;;;;;23.70;60.30;;;;;;5076969;28;19924;-57
2023/08/16 00:34:20;;;;;;;;;;;23.70;60.30;;;;;;5105916;27;19923;-57
2023/08/16 00:36:47;;;;;;;;;;;23.70;60.30;;;;;;5097427;27;19919;-57
2023/08/16 00:39:14;;;;;;;;;;;23.70;60.30;;;;;;5102162;27;20377;-57
2023/08/16 00:41:41;;;;;;;;;;;23.70;60.20;;;;;;5123452;27;19919;-57
2023/08/16 00:44:08;;;;;;;;;;;23.70;60.20;;;;;;5105238;27;19923;-57
2023/08/16 00:46:34;;;;;;;;;;;23.70;60.20;;;;;;5101362;28;19924;-56
2023/08/16 00:49:02;;;;;;;;;;;23.70;60.20;;;;;;5112847;27;19931;-57
2023/08/16 00:51:30;;;;;;;;;;;23.70;60.10;;;;;;5104047;28;19927;-56
2023/08/16 00:53:57;;;;;;;;;;;23.70;60.10;;;;;;5107023;27;19976;-57
2023/08/16 00:56:23;;;;;;;;;;;23.70;60.00;;;;;;5102139;28;19924;-56
2023/08/16 00:58:50;;;;;;;;;;;23.70;60.00;;;;;;5096972;28;20352;-56
2023/08/16 01:01:17;;;;;;;;;;;23.70;60.00;;;;;;5124678;27;19927;-56
2023/08/16 01:03:44;;;;;;;;;;;23.70;59.90;;;;;;5103197;27;20372;-56
2023/08/16 01:06:11;;;;;;;;;;;23.70;59.90;;;;;;5096873;27;20014;-54
2023/08/16 01:08:39;;;;;;;;;;;23.70;59.90;;;;;;5093888;28;19924;-57
2023/08/16 01:11:08;;;;;;;;;;;23.70;59.80;;;;;;5122098;27;19931;-57
2023/08/16 01:13:35;;;;;;;;;;;23.60;59.70;;;;;;5119720;28;19977;-56
2023/08/16 01:16:07;;;;;;;;;;;23.60;59.70;;;;;;5104911;28;20403;-57
2023/08/16 01:18:34;;;;;;;;;;;23.60;59.60;;;;;;5093297;28;19924;-56
2023/08/16 01:21:01;;;;;;;;;;;23.60;59.60;;;;;;5107966;28;19928;-57
2023/08/16 01:23:31;;;;;;;;;;;23.60;59.60;;;;;;5110385;28;19935;-56
2023/08/16 01:26:02;;;;;;;;;;;23.60;59.50;;;;;;5107214;28;20361;-56
2023/08/16 01:28:30;;;;;;;;;;;23.60;59.50;;;;;;5103756;28;19927;-56
2023/08/16 01:30:58;;;;;;;;;;;23.60;59.50;;;;;;5087544;28;20285;-57
2023/08/16 01:33:25;;;;;;;;;;;23.60;59.40;;;;;;5123747;28;19924;-57
2023/08/16 01:35:52;;;;;;;;;;;23.60;59.40;;;;;;5104595;28;19924;-57
2023/08/16 01:38:19;;;;;;;;;;;23.60;59.30;;;;;;5104909;28;19923;-56
2023/08/16 01:40:46;;;;;;;;;;;23.60;59.30;;;;;;5107833;28;19931;-56
2023/08/16 01:43:13;;;;;;;;;;;23.60;59.30;;;;;;5106875;28;19962;-57
2023/08/16 01:45:41;;;;;;;;;;;23.60;59.30;;;;;;5120593;28;19931;-57
2023/08/16 01:48:08;;;;;;;;;;;23.60;59.30;;;;;;5098734;28;19934;-56
2023/08/16 01:50:35;;;;;;;;;;;23.60;59.30;;;;;;5090744;28;19925;-57
2023/08/16 01:53:01;;;;;;;;;;;23.60;59.20;;;;;;5106777;28;19923;-57
2023/08/16 01:55:28;;;;;;;;;;;23.60;59.20;;;;;;5123663;27;19976;-56
2023/08/16 01:57:55;;;;;;;;;;;23.60;59.10;;;;;;5114087;28;19935;-57
2023/08/16 02:00:22;;;;;;;;;;;23.60;59.10;;;;;;5101961;28;19924;-57
2023/08/16 02:02:50;;;;;;;;;;;23.60;59.10;;;;;;5108696;27;20272;-57
2023/08/16 02:05:16;;;;;;;;;;;23.60;59.10;;;;;;5111638;28;19973;-57
2023/08/16 02:07:43;;;;;;;;;;;23.60;59.10;;;;;;5090069;28;19939;-57
2023/08/16 02:10:10;;;;;;;;;;;23.60;59.10;;;;;;5104853;28;19928;-57
2023/08/16 02:12:37;;;;;;;;;;;23.60;59.00;;;;;;5123350;27;19968;-56
2023/08/16 02:15:03;;;;;;;;;;;23.60;59.00;;;;;;5114132;27;19928;-57
2023/08/16 02:17:30;;;;;;;;;;;23.60;59.00;;;;;;5121467;27;20319;-57
2023/08/16 02:19:58;;;;;;;;;;;23.60;59.00;;;;;;5113349;27;19976;-55
2023/08/16 02:22:25;;;;;;;;;;;23.60;58.90;;;;;;5126766;27;19950;-56
2023/08/16 02:24:52;;;;;;;;;;;23.60;58.90;;;;;;5106986;27;19919;-56
2023/08/16 02:27:19;;;;;;;;;;;23.60;58.90;;;;;;5096546;28;19979;-57
2023/08/16 02:29:46;;;;;;;;;;;23.60;58.90;;;;;;5108340;27;19927;-57
2023/08/16 02:32:12;;;;;;;;;;;23.50;58.80;;;;;;5103414;28;19927;-57
2023/08/16 02:34:39;;;;;;;;;;;23.50;58.80;;;;;;5107257;27;19924;-57
2023/08/16 02:37:07;;;;;;;;;;;23.50;58.80;;;;;;5113048;27;19933;-57
2023/08/16 02:39:34;;;;;;;;;;;23.50;58.80;;;;;;5113315;27;19940;-56
2023/08/16 02:42:02;;;;;;;;;;;23.50;58.70;;;;;;5124179;27;19928;-57
2023/08/16 02:44:28;;;;;;;;;;;23.50;58.70;;;;;;5104615;28;19927;-57
2023/08/16 02:46:55;;;;;;;;;;;23.50;58.70;;;;;;5104922;28;19932;-57
2023/08/16 02:49:22;;;;;;;;;;;23.50;58.70;;;;;;5122532;27;19923;-57
2023/08/16 02:51:48;;;;;;;;;;;23.50;58.70;;;;;;5109986;27;19941;-57
2023/08/16 02:54:17;;;;;;;;;;;23.50;58.70;;;;;;5127158;27;19984;-56
2023/08/16 02:56:43;;;;;;;;;;;23.50;58.70;;;;;;5108282;27;19984;-57
2023/08/16 02:59:13;;;;;;;;;;;23.50;58.70;;;;;;5108040;27;20420;-57
2023/08/16 03:01:40;;;;;;;;;;;23.50;58.70;;;;;;5096070;28;20368;-57
2023/08/16 03:04:07;;;;;;;;;;;23.50;58.70;;;;;;5104397;28;20361;-56
2023/08/16 03:06:34;;;;;;;;;;;23.50;58.70;;;;;;5097870;27;20384;-57
2023/08/16 03:09:01;;;;;;;;;;;23.50;58.60;;;;;;5098531;28;19924;-57
2023/08/16 03:11:29;;;;;;;;;;;23.50;58.70;;;;;;5134555;27;19945;-57
2023/08/16 03:13:56;;;;;;;;;;;23.50;58.60;;;;;;5103680;28;19977;-57
2023/08/16 03:16:22;;;;;;;;;;;23.50;58.70;;;;;;5103648;28;19924;-57
2023/08/16 03:18:49;;;;;;;;;;;23.50;58.60;;;;;;5095796;28;19931;-57
2023/08/16 03:21:16;;;;;;;;;;;23.50;58.60;;;;;;5108803;27;19984;-57
2023/08/16 03:23:43;;;;;;;;;;;23.50;58.60;;;;;;5130836;27;19932;-57
2023/08/16 03:26:10;;;;;;;;;;;23.50;58.70;;;;;;5122476;27;19935;-57
2023/08/16 03:28:38;;;;;;;;;;;23.50;58.70;;;;;;5114576;27;19924;-57
2023/08/16 03:31:07;;;;;;;;;;;23.50;58.60;;;;;;5107159;27;19924;-58
2023/08/16 03:33:33;;;;;;;;;;;23.50;58.60;;;;;;5107019;27;19954;-57
2023/08/16 03:36:00;;;;;;;;;;;23.50;58.60;;;;;;5106339;27;19931;-57
2023/08/16 03:38:27;;;;;;;;;;;23.50;58.60;;;;;;5092044;28;20004;-57
2023/08/16 03:40:54;;;;;;;;;;;23.50;58.60;;;;;;5102441;28;20250;-57
2023/08/16 03:43:20;;;;;;;;;;;23.50;58.60;;;;;;5120202;27;19969;-57
2023/08/16 03:45:50;;;;;;;;;;;23.50;58.60;;;;;;5104750;27;19924;-57
2023/08/16 03:48:16;;;;;;;;;;;23.50;58.60;;;;;;5111005;27;19926;-56
2023/08/16 03:50:43;;;;;;;;;;;23.50;58.60;;;;;;5106193;27;19928;-57
2023/08/16 03:53:11;;;;;;;;;;;23.50;58.60;;;;;;5107373;27;19927;-57
2023/08/16 03:55:38;;;;;;;;;;;23.50;58.60;;;;;;5106818;27;20018;-58
2023/08/16 03:58:04;;;;;;;;;;;23.50;58.60;;;;;;5098524;28;19931;-57
2023/08/16 04:00:31;;;;;;;;;;;23.40;58.50;;;;;;5106913;27;20388;-57
2023/08/16 04:02:59;;;;;;;;;;;23.50;58.60;;;;;;5106964;27;19923;-57
2023/08/16 04:05:27;;;;;;;;;;;23.40;58.50;;;;;;5105841;27;19981;-57
2023/08/16 04:07:54;;;;;;;;;;;23.50;58.60;;;;;;5099104;28;19973;-57
2023/08/16 04:10:21;;;;;;;;;;;23.50;58.50;;;;;;5122447;27;19970;-57
2023/08/16 04:12:47;;;;;;;;;;;23.40;58.40;;;;;;5097375;27;19980;-57
2023/08/16 04:15:14;;;;;;;;;;;23.40;58.50;;;;;;5105755;27;19972;-57
2023/08/16 04:17:41;;;;;;;;;;;23.50;58.50;;;;;;5100776;27;19923;-57
2023/08/16 04:20:10;;;;;;;;;;;23.40;58.40;;;;;;5111540;27;20281;-57
2023/08/16 04:22:37;;;;;;;;;;;23.40;58.40;;;;;;5122925;27;19930;-58
2023/08/16 04:25:04;;;;;;;;;;;23.40;58.50;;;;;;5101897;28;19927;-57
2023/08/16 04:27:31;;;;;;;;;;;23.40;58.40;;;;;;5095984;27;20021;-57
2023/08/16 04:29:58;;;;;;;;;;;23.40;58.40;;;;;;5098372;27;19935;-58
2023/08/16 04:32:24;;;;;;;;;;;23.40;58.40;;;;;;5094745;28;19985;-57
2023/08/16 04:34:51;;;;;;;;;;;23.40;59.00;;;;;;5113885;27;19984;-57
2023/08/16 04:37:19;;;;;;;;;;;23.40;58.40;;;;;;5100464;27;19931;-57
2023/08/16 04:39:46;;;;;;;;;;;23.40;58.50;;;;;;5120150;27;19934;-57
2023/08/16 04:42:13;;;;;;;;;;;23.40;58.50;;;;;;5126529;27;19932;-57
2023/08/16 04:44:39;;;;;;;;;;;23.40;58.50;;;;;;5129408;27;19986;-57
2023/08/16 04:47:07;;;;;;;;;;;23.40;58.50;;;;;;5098048;28;20404;-57
2023/08/16 04:49:33;;;;;;;;;;;23.40;58.40;;;;;;5089949;28;20335;-57
2023/08/16 04:52:00;;;;;;;;;;;23.40;58.50;;;;;;5117067;27;19963;-57
2023/08/16 04:54:28;;;;;;;;;;;23.40;58.50;;;;;;5131572;27;19931;-56
2023/08/16 04:56:55;;;;;;;;;;;23.40;58.50;;;;;;5106966;27;20360;-61
2023/08/16 04:59:22;;;;;;;;;;;23.40;58.60;;;;;;5105315;28;20288;-57
2023/08/16 05:01:48;;;;;;;;;;;23.40;58.60;;;;;;5113379;27;19938;-57
2023/08/16 05:04:15;;;;;;;;;;;23.40;58.60;;;;;;5106521;27;19934;-57
2023/08/16 05:06:42;;;;;;;;;;;23.40;58.60;;;;;;5100121;27;19931;-57
2023/08/16 05:09:09;;;;;;;;;;;23.40;58.60;;;;;;5105932;28;19928;-57
2023/08/16 05:11:37;;;;;;;;;;;23.40;58.70;;;;;;5127134;28;19962;-57
2023/08/16 05:14:04;;;;;;;;;;;23.40;58.70;;;;;;5114289;28;20285;-58
2023/08/16 05:16:30;;;;;;;;;;;23.40;58.70;;;;;;5096195;28;19931;-57
2023/08/16 05:18:58;;;;;;;;;;;23.40;58.70;;;;;;5104810;28;19928;-57
2023/08/16 05:21:25;;;;;;;;;;;23.40;58.70;;;;;;5095396;28;19983;-57
2023/08/16 05:23:51;;;;;;;;;;;23.40;58.80;;;;;;5092110;28;19928;-57
2023/08/16 05:26:18;;;;;;;;;;;23.40;58.80;;;;;;5098829;28;19932;-58
2023/08/16 05:28:46;;;;;;;;;;;23.40;58.80;;;;;;5119708;28;19938;-57
2023/08/16 05:31:13;;;;;;;;;;;23.40;58.90;;;;;;5096479;28;19931;-58
2023/08/16 05:33:40;;;;;;;;;;;23.40;58.90;;;;;;5098897;27;20335;-57
2023/08/16 05:36:07;;;;;;;;;;;23.50;59.00;;;;;;5099017;27;19931;-57
2023/08/16 05:38:34;;;;;;;;;;;23.40;58.90;;;;;;5102664;27;19947;-57
2023/08/16 05:41:03;;;;;;;;;;;23.40;59.00;;;;;;5124775;27;20429;-57
2023/08/16 05:43:29;;;;;;;;;;;23.40;59.00;;;;;;5106074;27;19924;-57
2023/08/16 05:45:58;;;;;;;;;;;23.40;59.00;;;;;;5085360;27;20022;-56
2023/08/16 05:48:24;;;;;;;;;;;23.40;59.00;;;;;;5103255;28;20427;-57
2023/08/16 05:50:51;;;;;;;;;;;23.40;59.00;;;;;;5134448;27;19988;-57
2023/08/16 05:53:18;;;;;;;;;;;23.40;59.60;;;;;;5106628;28;20369;-57
2023/08/16 05:55:45;;;;;;;;;;;23.40;59.00;;;;;;5131886;27;19928;-57
2023/08/16 05:58:11;;;;;;;;;;;23.50;59.10;;;;;;5127978;27;19975;-58
2023/08/16 06:00:38;;;;;;;;;;;23.40;59.10;;;;;;5109552;27;20011;-57
2023/08/16 06:03:07;;;;;;;;;;;23.40;59.10;;;;;;5124895;27;19969;-57
2023/08/16 06:05:34;;;;;;;;;;;23.40;59.10;;;;;;5100084;27;19932;-56
2023/08/16 06:08:01;;;;;;;;;;;23.40;59.10;;;;;;5116641;27;19938;-58
2023/08/16 06:10:27;;;;;;;;;;;23.40;59.20;;;;;;5135177;27;19928;-57
2023/08/16 06:12:54;;;;;;;;;;;23.40;59.20;;;;;;5108472;27;19928;-57
2023/08/16 06:15:21;;;;;;;;;;;23.40;59.20;;;;;;5100935;28;19980;-57
2023/08/16 06:17:48;;;;;;;;;;;23.40;59.20;;;;;;5107676;27;19923;-57
2023/08/16 06:20:16;;;;;;;;;;;23.40;59.20;;;;;;5109315;27;19923;-57
2023/08/16 06:22:43;;;;;;;;;;;23.40;59.20;;;;;;5096269;27;19983;-57
2023/08/16 06:25:10;;;;;;;;;;;23.40;59.30;;;;;;5097313;27;20006;-57
2023/08/16 06:27:37;;;;;;;;;;;23.40;59.30;;;;;;5094182;27;19928;-57
2023/08/16 06:30:04;;;;;;;;;;;23.40;59.40;;;;;;5110976;28;19977;-57
2023/08/16 06:32:31;;;;;;;;;;;23.40;59.30;;;;;;5104628;27;19923;-57
2023/08/16 06:34:57;;;;;;;;;;;23.40;59.40;;;;;;5097225;27;19939;-56
2023/08/16 06:37:25;;;;;;;;;;;23.40;59.40;;;;;;5093861;27;19924;-54
2023/08/16 06:39:52;;;;;;;;;;;23.40;59.40;;;;;;5098662;27;20334;-58
2023/08/16 06:42:19;;;;;;;;;;;23.40;59.50;;;;;;5126814;27;19924;-58
2023/08/16 06:44:46;;;;;;;;;;;23.40;59.50;;;;;;5116939;27;20391;-56
2023/08/16 06:47:13;;;;;;;;;;;23.40;59.50;;;;;;5096441;28;19940;-57
2023/08/16 06:49:39;;;;;;;;;;;23.40;59.50;;;;;;5099476;27;19932;-57
2023/08/16 06:52:06;;;;;;;;;;;23.50;59.60;;;;;;5107231;27;19924;-57
2023/08/16 06:54:35;;;;;;;;;;;23.50;59.60;;;;;;5092727;28;19924;-57
2023/08/16 06:57:01;;;;;;;;;;;23.50;59.60;;;;;;5115265;27;19928;-58
2023/08/16 06:59:29;;;;;;;;;;;23.50;59.60;;;;;;5091933;28;19928;-58
2023/08/16 07:01:56;;;;;;;;;;;23.50;59.60;;;;;;5114721;27;19936;-59
2023/08/16 07:04:23;;;;;;;;;;;23.50;59.60;;;;;;5086027;28;19923;-59
2023/08/16 07:06:50;;;;;;;;;;;23.50;59.60;;;;;;5086320;28;19931;-59
2023/08/16 07:09:16;;;;;;;;;;;23.50;59.70;;;;;;5122125;27;20855;-58
2023/08/16 07:11:45;;;;;;;;;;;23.60;59.70;;;;;;5085422;27;19931;-57
2023/08/16 07:14:12;;;;;;;;;;;23.50;59.60;;;;;;5113765;27;19928;-58
2023/08/16 07:16:39;;;;;;;;;;;23.50;59.60;;;;;;5079640;27;19985;-58
2023/08/16 07:19:08;;;;;;;;;;;23.50;59.60;;;;;;5104829;27;19928;-58
2023/08/16 07:21:35;;;;;;;;;;;23.60;59.70;;;;;;5081140;27;19931;-58
2023/08/16 07:24:02;;;;;;;;;;;23.60;59.60;;;;;;5072496;27;19942;-63
2023/08/16 07:26:28;;;;;;;;;;;23.60;59.40;;;;;;5077905;27;19933;-63
2023/08/16 07:28:57;;;;;;;;;;;23.50;58.70;;;;;;5092978;27;19935;-63
2023/08/16 07:31:24;;;;;;;;;;;23.50;58.50;;;;;;5087118;28;19923;-62
2023/08/16 07:33:50;;;;;;;;;;;23.50;58.40;;;;;;5081657;27;20034;-63
2023/08/16 07:36:17;;;;;;;;;;;23.50;58.30;;;;;;5084999;27;20538;-63
2023/08/16 07:38:44;;;;;;;;;;;23.40;58.30;;;;;;5108546;27;20506;-62
2023/08/16 07:41:11;;;;;;;;;;;23.40;58.10;;;;;;5091997;27;19931;-64
2023/08/16 07:43:37;;;;;;;;;;;23.40;58.30;;;;;;5093818;28;19930;-63
2023/08/16 07:46:06;;;;;;;;;;;23.30;58.20;;;;;;5093664;28;19932;-63
2023/08/16 07:48:32;;;;;;;;;;;23.30;58.40;;;;;;5088722;27;19949;-63
2023/08/16 07:50:59;;;;;;;;;;;23.30;58.50;;;;;;5094510;27;19923;-64
2023/08/16 07:53:26;;;;;;;;;;;23.30;58.30;;;;;;5096780;28;19924;-63
2023/08/16 07:55:53;;;;;;;;;;;23.20;58.00;;;;;;5088454;28;20288;-62
2023/08/16 07:58:20;;;;;;;;;;;23.20;57.90;;;;;;5097554;28;19923;-63
2023/08/16 08:00:48;;;;;;;;;;;23.20;57.90;;;;;;5094370;27;19924;-64
2023/08/16 08:03:17;;;;;;;;;;;23.10;57.70;;;;;;5093779;27;20031;-61
2023/08/16 08:05:44;;;;;;;;;;;23.10;57.70;;;;;;5107873;27;19939;-63
2023/08/16 08:08:11;;;;;;;;;;;23.10;57.50;;;;;;5106952;27;19924;-61
2023/08/16 08:10:37;;;;;;;;;;;23.00;57.40;;;;;;5090327;27;19954;-62
2023/08/16 08:13:04;;;;;;;;;;;23.00;57.50;;;;;;5111873;27;21339;-62
2023/08/16 08:15:31;;;;;;;;;;;23.00;57.60;;;;;;5095014;28;19924;-62
2023/08/16 08:17:58;;;;;;;;;;;23.00;57.80;;;;;;5093534;28;20385;-61
2023/08/16 08:20:26;;;;;;;;;;;23.00;58.20;;;;;;5110920;27;20224;-60
2023/08/16 08:22:53;;;;;;;;;;;23.00;58.40;;;;;;5110714;27;19931;-61
2023/08/16 08:25:20;;;;;;;;;;;23.00;58.60;;;;;;5092017;28;19927;-61
2023/08/16 08:27:46;;;;;;;;;;;23.00;58.70;;;;;;5086525;28;19924;-64
2023/08/16 08:30:14;;;;;;;;;;;23.00;58.70;;;;;;5079778;28;19971;-62
2023/08/16 08:32:42;;;;;;;;;;;23.00;58.70;;;;;;5110575;27;19930;-62
2023/08/16 08:35:11;;;;;;;;;;;23.00;58.80;;;;;;5096634;28;19924;-60
2023/08/16 08:37:40;;;;;;;;;;;23.00;58.70;;;;;;5090066;27;19985;-61
2023/08/16 08:40:07;;;;;;;;;;;23.00;58.70;;;;;;5092238;28;19973;-60
2023/08/16 08:42:34;;;;;;;;;;;23.00;58.80;;;;;;5094645;28;19981;-61
2023/08/16 08:45:01;;;;;;;;;;;23.00;59.00;;;;;;5098945;28;19939;-62
2023/08/16 08:47:29;;;;;;;;;;;23.00;58.80;;;;;;5129194;27;19924;-62
2023/08/16 08:49:56;;;;;;;;;;;23.00;58.90;;;;;;5100968;27;19935;-62
2023/08/16 08:52:23;;;;;;;;;;;23.00;58.80;;;;;;5096182;28;19927;-60
2023/08/16 08:54:53;;;;;;;;;;;23.00;58.90;;;;;;5099741;28;19969;-63
2023/08/16 08:57:19;;;;;;;;;;;23.00;59.00;;;;;;5093763;28;19923;-62
2023/08/16 08:59:49;;;;;;;;;;;23.00;58.90;;;;;;5119185;27;19988;-63
2023/08/16 09:02:16;;;;;;;;;;;23.00;58.90;;;;;;5118843;27;19997;-62
2023/08/16 09:04:44;;;;;;;;;;;23.00;59.00;;;;;;5117885;27;19927;-62
2023/08/16 09:07:11;;;;;;;;;;;23.00;58.90;;;;;;5093597;28;19923;-62
2023/08/16 09:09:39;;;;;;;;;;;23.00;58.80;;;;;;5111094;27;19928;-64
2023/08/16 09:12:10;;;;;;;;;;;23.00;58.90;;;;;;5122244;27;19928;-62
2023/08/16 09:14:37;;;;;;;;;;;23.00;58.90;;;;;;5094295;28;19931;-62
2023/08/16 09:17:05;;;;;;;;;;;23.00;59.00;;;;;;5091618;28;19928;-62
2023/08/16 09:19:32;;;;;;;;;;;23.00;58.90;;;;;;5090699;28;19928;-61
2023/08/16 09:21:59;;;;;;;;;;;23.00;59.00;;;;;;5090624;28;19931;-61
2023/08/16 09:24:27;;;;;;;;;;;23.00;59.00;;;;;;5088114;28;19928;-63
2023/08/16 09:27:03;;;;;;;;;;;23.00;59.00;;;;;;5091982;28;19977;-61
2023/08/16 09:29:33;;;;;;;;;;;23.00;59.00;;;;;;5116723;27;19927;-60
2023/08/16 09:32:00;;;;;;;;;;;23.00;58.90;;;;;;5107553;28;20718;-63
2023/08/16 09:34:28;;;;;;;;;;;23.00;58.90;;;;;;5116455;27;20014;-63
2023/08/16 09:36:56;;;;;;;;;;;23.00;58.90;;;;;;5086406;28;19938;-61
2023/08/16 09:39:26;;;;;;;;;;;23.00;58.60;;;;;;5113163;28;19930;-62
2023/08/16 09:41:54;;;;;;;;;;;23.00;58.10;;;;;;5093702;28;19923;-61
2023/08/16 09:44:28;;;;;;;;;;;23.10;57.90;;;;;;5090536;28;19954;-62
2023/08/16 09:46:56;;;;;;;;;;;23.00;57.80;;;;;;5109093;28;19927;-61
2023/08/16 09:49:23;;;;;;;;;;;23.00;57.70;;;;;;5090451;28;19931;-61
2023/08/16 09:51:50;;;;;;;;;;;22.90;58.30;;;;;;5088945;28;19985;-61
2023/08/16 09:54:17;;;;;;;;;;;23.00;57.90;;;;;;5095974;28;19924;-61
2023/08/16 09:56:44;;;;;;;;;;;22.90;57.90;;;;;;5125820;27;19927;-63
2023/08/16 09:59:12;;;;;;;;;;;23.00;57.90;;;;;;5091921;28;20562;-62
2023/08/16 10:01:38;;;;;;;;;;;23.00;58.00;;;;;;5093188;28;19924;-62
2023/08/16 10:04:07;;;;;;;;;;;23.00;57.90;;;;;;5111712;28;19923;-62
2023/08/16 10:06:34;;;;;;;;;;;23.00;57.60;;;;;;5096331;28;19981;-61
2023/08/16 10:09:02;;;;;;;;;;;23.00;57.00;;;;;;5096407;28;19928;-61
2023/08/16 10:11:29;;;;;;;;;;;23.00;56.90;;;;;;5091563;28;19923;-61
2023/08/16 10:13:55;;;;;;;;;;;23.00;56.70;;;;;;5094052;28;19935;-61
2023/08/16 10:16:22;;;;;;;;;;;22.90;56.60;;;;;;5122854;27;19969;-61
2023/08/16 10:18:49;;;;;;;;;;;22.90;56.70;;;;;;5094160;28;19977;-61
2023/08/16 10:21:18;;;;;;;;;;;22.90;56.60;;;;;;5093162;28;19924;-60
2023/08/16 10:23:45;;;;;;;;;;;22.90;56.50;;;;;;5126047;27;19932;-59
2023/08/16 10:26:13;;;;;;;;;;;22.90;56.60;;;;;;5099492;28;19924;-61
2023/08/16 10:28:40;;;;;;;;;;;22.90;56.30;;;;;;5101065;28;20232;-61
2023/08/16 10:31:07;;;;;;;;;;;22.90;56.00;;;;;;5088260;28;20274;-61
2023/08/16 10:33:36;;;;;;;;;;;22.90;56.10;;;;;;5087999;27;20310;-61
2023/08/16 10:36:03;;;;;;;;;;;22.90;56.30;;;;;;5110645;27;19932;-61
2023/08/16 10:38:37;;;;;;;;;;;22.90;57.00;;;;;;5093357;27;19976;-60
2023/08/16 10:41:10;;;;;;;;;;;22.90;57.30;;;;;;5106549;27;19924;-61
2023/08/16 10:43:37;;;;;;;;;;;22.90;57.40;;;;;;5098434;27;19938;-60
2023/08/16 10:46:04;;;;;;;;;;;22.90;57.20;;;;;;5126200;27;19927;-61
2023/08/16 10:48:33;;;;;;;;;;;23.00;57.10;;;;;;5079293;28;19924;-61
2023/08/16 10:51:00;;;;;;;;;;;23.10;57.00;;;;;;5097822;28;19931;-60
2023/08/16 10:53:27;;;;;;;;;;;23.00;57.00;;;;;;5093634;28;20349;-61
2023/08/16 10:55:56;;;;;;;;;;;23.00;57.00;;;;;;5093508;27;19927;-61
2023/08/16 10:58:23;;;;;;;;;;;23.10;57.00;;;;;;5093756;28;19931;-61
2023/08/16 11:00:55;;;;;;;;;;;23.10;57.10;;;;;;5114032;27;20377;-62
2023/08/16 11:03:22;;;;;;;;;;;23.00;57.00;;;;;;5103976;27;20539;-62
2023/08/16 11:05:50;;;;;;;;;;;23.10;57.10;;;;;;5095272;27;19923;-63
2023/08/16 11:08:16;;;;;;;;;;;23.10;56.90;;;;;;5121091;27;19927;-61
2023/08/16 11:10:43;;;;;;;;;;;23.10;56.80;;;;;;5113939;27;19931;-62
2023/08/16 11:13:11;;;;;;;;;;;23.10;56.80;;;;;;5093885;28;19924;-62
2023/08/16 11:15:39;;;;;;;;;;;23.20;56.70;;;;;;5093541;28;19924;-62
2023/08/16 11:18:06;;;;;;;;;;;23.20;56.60;;;;;;5087488;28;20409;-61
2023/08/16 11:20:33;;;;;;;;;;;23.20;56.80;;;;;;5095570;28;19930;-62
2023/08/16 11:22:59;;;;;;;;;;;23.20;57.10;;;;;;5097650;27;19923;-61
2023/08/16 11:25:31;;;;;;;;;;;23.20;57.00;;;;;;5125954;27;19932;-61
2023/08/16 11:28:00;;;;;;;;;;;23.30;56.70;;;;;;5106863;27;19932;-61
2023/08/16 11:30:28;;;;;;;;;;;23.30;56.20;;;;;;5123953;27;19939;-61
2023/08/16 11:32:55;;;;;;;;;;;23.40;55.90;;;;;;5096130;28;19932;-61
2023/08/16 11:35:23;;;;;;;;;;;23.40;55.20;;;;;;5092168;28;19924;-61
2023/08/16 11:37:50;;;;;;;;;;;23.40;55.00;;;;;;5126010;27;19925;-62
2023/08/16 11:40:21;;;;;;;;;;;23.40;54.70;;;;;;5114846;27;19924;-63
2023/08/16 11:42:49;;;;;;;;;;;23.40;54.40;;;;;;5094411;28;19924;-63
2023/08/16 11:45:19;;;;;;;;;;;23.40;54.50;;;;;;5100116;27;19932;-64
2023/08/16 11:47:50;;;;;;;;;;;23.40;54.50;;;;;;5112694;27;19939;-64
2023/08/16 11:50:17;;;;;;;;;;;23.40;55.20;;;;;;5092858;28;19935;-61
2023/08/16 11:52:45;;;;;;;;;;;23.40;55.30;;;;;;5096208;28;19942;-61
2023/08/16 11:55:14;;;;;;;;;;;23.50;54.70;;;;;;5094829;28;19939;-61
2023/08/16 11:57:44;;;;;;;;;;;23.40;53.70;;;;;;5090522;27;19932;-61
2023/08/16 12:00:14;;;;;;;;;;;23.40;53.50;;;;;;5088919;28;19924;-62
2023/08/16 12:02:42;;;;;;;;;;;23.40;54.70;;;;;;5077307;27;19938;-61
2023/08/16 12:05:11;;;;;;;;;;;23.40;54.90;;;;;;5113533;27;19994;-63
2023/08/16 12:07:48;;;;;;;;;;;23.40;55.10;;;;;;5099063;27;19932;-62
2023/08/16 12:10:21;;;;;;;;;;;23.40;54.70;;;;;;5086460;28;19935;-62
2023/08/16 12:12:49;;;;;;;;;;;23.40;54.90;;;;;;5089060;27;19988;-61
2023/08/16 12:15:15;;;;;;;;;;;23.50;55.10;;;;;;5099208;27;19927;-62
2023/08/16 12:17:42;;;;;;;;;;;23.50;55.20;;;;;;5094435;27;19931;-61
2023/08/16 12:20:12;;;;;;;;;;;23.60;55.40;;;;;;5114067;27;19924;-62
2023/08/16 12:22:39;;;;;;;;;;;23.60;55.50;;;;;;5110387;27;19924;-62
2023/08/16 12:25:06;;;;;;;;;;;23.60;55.40;;;;;;5093102;28;19928;-62
2023/08/16 12:27:33;;;;;;;;;;;23.60;55.50;;;;;;5125061;27;19927;-64
2023/08/16 12:30:00;;;;;;;;;;;23.70;55.50;;;;;;5090738;28;19935;-61
2023/08/16 12:32:26;;;;;;;;;;;23.70;55.80;;;;;;5092930;28;20374;-63
2023/08/16 12:34:53;;;;;;;;;;;23.80;55.80;;;;;;5100404;27;19923;-60
2023/08/16 12:37:21;;;;;;;;;;;23.80;55.70;;;;;;5094547;28;19930;-62
2023/08/16 12:39:48;;;;;;;;;;;23.80;55.50;;;;;;5121071;27;19972;-62
2023/08/16 12:42:15;;;;;;;;;;;23.80;55.40;;;;;;5092741;28;20278;-64
2023/08/16 12:44:42;;;;;;;;;;;23.80;55.50;;;;;;5108169;27;20377;-62
2023/08/16 12:47:08;;;;;;;;;;;23.90;55.60;;;;;;5121973;27;19928;-62
2023/08/16 12:49:35;;;;;;;;;;;23.90;55.60;;;;;;5093260;27;19981;-61
2023/08/16 12:52:02;;;;;;;;;;;23.90;55.30;;;;;;5101216;28;20657;-62
2023/08/16 12:54:30;;;;;;;;;;;23.90;55.10;;;;;;5089992;28;19927;-62
2023/08/16 12:56:57;;;;;;;;;;;23.90;54.80;;;;;;5093786;28;19984;-62
2023/08/16 12:59:24;;;;;;;;;;;23.90;55.20;;;;;;5110775;27;19924;-62
2023/08/16 13:01:51;;;;;;;;;;;23.90;55.20;;;;;;5117329;27;19932;-62
2023/08/16 13:04:18;;;;;;;;;;;23.90;55.10;;;;;;5088338;28;19988;-62
2023/08/16 13:06:45;;;;;;;;;;;23.90;55.00;;;;;;5097513;27;19931;-60
2023/08/16 13:09:11;;;;;;;;;;;23.90;54.80;;;;;;5117885;27;19985;-61
2023/08/16 13:11:40;;;;;;;;;;;23.90;54.80;;;;;;5102275;28;19969;-61
2023/08/16 13:14:09;;;;;;;;;;;23.90;54.90;;;;;;5096731;28;19924;-61
2023/08/16 13:16:35;;;;;;;;;;;24.00;54.70;;;;;;5097826;28;19928;-62
2023/08/16 13:19:05;;;;;;;;;;;24.00;54.60;;;;;;5088622;28;19924;-62
2023/08/16 13:21:33;;;;;;;;;;;24.00;54.00;;;;;;5106055;28;19923;-64
2023/08/16 13:24:07;;;;;;;;;;;24.00;54.00;;;;;;5091114;28;19928;-63
2023/08/16 13:26:33;;;;;;;;;;;24.00;54.30;;;;;;5124446;27;19931;-62
2023/08/16 13:29:01;;;;;;;;;;;24.00;54.50;;;;;;5096750;28;19995;-62
2023/08/16 13:31:28;;;;;;;;;;;24.00;54.50;;;;;;5098151;28;20558;-61
2023/08/16 13:33:55;;;;;;;;;;;24.00;54.70;;;;;;5097170;28;19932;-61
2023/08/16 13:36:22;;;;;;;;;;;24.00;54.90;;;;;;5091647;28;19924;-64
2023/08/16 13:38:49;;;;;;;;;;;24.00;54.90;;;;;;5099087;28;19928;-62
2023/08/16 13:41:16;;;;;;;;;;;24.00;55.10;;;;;;5090556;28;19928;-62
2023/08/16 13:43:42;;;;;;;;;;;24.00;55.10;;;;;;5079396;28;19978;-61
2023/08/16 13:46:11;;;;;;;;;;;24.00;55.10;;;;;;5086010;28;19942;-63
2023/08/16 13:48:37;;;;;;;;;;;24.00;55.30;;;;;;5088310;28;19935;-62
2023/08/16 13:51:04;;;;;;;;;;;24.00;55.20;;;;;;5106018;28;19931;-61
2023/08/16 13:53:31;;;;;;;;;;;24.00;55.30;;;;;;5090960;27;19932;-63
2023/08/16 13:56:00;;;;;;;;;;;24.00;55.30;;;;;;5088848;28;19927;-63
2023/08/16 13:58:28;;;;;;;;;;;24.00;55.40;;;;;;5096820;28;19966;-63
2023/08/16 14:00:55;;;;;;;;;;;23.90;55.50;;;;;;5096274;28;19924;-61
2023/08/16 14:03:23;;;;;;;;;;;23.90;55.50;;;;;;5113793;27;19924;-61
2023/08/16 14:05:54;;;;;;;;;;;23.90;55.60;;;;;;5092601;27;19939;-62
2023/08/16 14:08:21;;;;;;;;;;;23.90;55.60;;;;;;5095154;28;19924;-62
2023/08/16 14:10:50;;;;;;;;;;;23.90;55.30;;;;;;5092663;28;19924;-63
2023/08/16 14:13:17;;;;;;;;;;;23.80;55.10;;;;;;5094062;28;19924;-61
2023/08/16 14:15:43;;;;;;;;;;;23.80;55.10;;;;;;5093137;28;19968;-65